createdAt,value
2022-12-24T00:01:06.411Z,4.70
2022-12-24T00:03:33.936Z,5.35
2022-12-24T00:06:04.971Z,4.77
2022-12-24T00:08:31.284Z,4.00
2022-12-24T00:10:57.867Z,4.25
2022-12-24T00:13:24.745Z,4.70
2022-12-24T00:15:51.476Z,5.03
2022-12-24T00:18:18.071Z,4.75
2022-12-24T00:20:50.825Z,4.72
2022-12-24T00:23:18.219Z,5.22
2022-12-24T00:25:45.317Z,4.95
2022-12-24T00:28:12.643Z,5.53
2022-12-24T00:30:40.609Z,4.55
2022-12-24T00:33:07.250Z,4.38
2022-12-24T00:35:38.039Z,4.50
2022-12-24T00:38:04.783Z,4.60
2022-12-24T00:40:31.760Z,4.28
2022-12-24T00:42:58.713Z,5.55
2022-12-24T00:45:26.908Z,4.18
2022-12-24T00:47:53.605Z,4.65
2022-12-24T00:50:20.060Z,4.18
2022-12-24T00:52:46.403Z,5.75
2022-12-24T00:55:12.720Z,5.70
2022-12-24T00:57:39.091Z,5.65
2022-12-24T01:00:06.486Z,5.95
2022-12-24T01:02:33.215Z,6.45
2022-12-24T01:05:11.732Z,7.18
2022-12-24T01:10:11.855Z,6.30
2022-12-24T01:12:38.796Z,5.40
2022-12-24T01:15:05.905Z,6.20
2022-12-24T01:17:33.385Z,5.97
2022-12-24T01:19:59.960Z,5.72
2022-12-24T01:22:26.787Z,6.63
2022-12-24T01:24:53.172Z,5.63
2022-12-24T01:27:20.611Z,5.13
2022-12-24T01:29:46.937Z,5.45
2022-12-24T01:32:13.564Z,6.18
2022-12-24T01:34:39.919Z,5.45
2022-12-24T01:37:06.344Z,5.85
2022-12-24T01:39:32.801Z,5.68
2022-12-24T01:42:17.572Z,5.28
2022-12-24T01:44:48.113Z,6.50
2022-12-24T01:47:27.710Z,6.18
2022-12-24T01:50:00.630Z,5.65
2022-12-24T01:52:31.352Z,5.65
2022-12-24T01:55:03.454Z,5.45
2022-12-24T01:57:46.151Z,5.85
2022-12-24T02:00:14.746Z,5.50
2022-12-24T02:05:36.861Z,5.10
2022-12-24T02:08:04.967Z,5.45
2022-12-24T02:10:31.619Z,5.55
2022-12-24T02:12:59.777Z,5.72
2022-12-24T02:15:34.358Z,6.18
2022-12-24T02:18:23.017Z,6.13
2022-12-24T02:20:52.542Z,5.47
2022-12-24T02:23:32.240Z,5.75
2022-12-24T02:26:08.131Z,6.72
2022-12-24T02:29:11.738Z,6.43
2022-12-24T02:31:51.442Z,5.28
2022-12-24T02:34:40.680Z,7.05
2022-12-24T02:37:14.198Z,4.63
2022-12-24T02:39:42.394Z,5.40
2022-12-24T02:42:11.837Z,6.30
2022-12-24T02:44:46.744Z,6.32
2022-12-24T02:47:15.362Z,6.10
2022-12-24T02:52:29.136Z,5.53
2022-12-24T02:54:58.696Z,5.95
2022-12-24T02:57:54.850Z,5.82
2022-12-24T03:00:23.890Z,6.43
2022-12-24T03:03:23.797Z,6.32
2022-12-24T03:06:14.517Z,7.15
2022-12-24T03:08:48.925Z,7.32
2022-12-24T03:11:16.424Z,5.57
2022-12-24T03:13:43.948Z,6.85
2022-12-24T03:16:16.416Z,6.90
2022-12-24T03:18:45.909Z,6.85
2022-12-24T03:21:20.703Z,6.53
2022-12-24T03:23:47.763Z,5.05
2022-12-24T03:26:17.952Z,5.88
2022-12-24T03:28:45.909Z,5.53
2022-12-24T03:31:13.103Z,6.82
2022-12-24T03:33:39.930Z,6.55
2022-12-24T03:36:07.860Z,6.65
2022-12-24T03:38:34.277Z,6.10
2022-12-24T03:41:00.800Z,6.38
2022-12-24T03:43:27.146Z,7.28
2022-12-24T03:45:53.672Z,6.63
2022-12-24T03:48:20.006Z,6.80
2022-12-24T03:50:46.549Z,6.57
2022-12-24T03:53:12.979Z,6.63
2022-12-24T03:55:39.877Z,6.50
2022-12-24T03:58:06.557Z,5.25
2022-12-24T04:00:33.186Z,6.50
2022-12-24T04:02:59.614Z,6.25
2022-12-24T04:05:25.957Z,5.72
2022-12-24T04:07:52.473Z,5.93
2022-12-24T04:10:19.181Z,6.25
2022-12-24T04:12:45.708Z,7.00
2022-12-24T04:15:12.279Z,6.78
2022-12-24T04:17:38.805Z,6.00
2022-12-24T04:20:06.013Z,5.93
2022-12-24T04:22:32.775Z,5.28
2022-12-24T04:24:59.094Z,5.43
2022-12-24T04:27:30.449Z,6.93
2022-12-24T04:29:57.586Z,7.18
2022-12-24T04:32:26.044Z,5.97
2022-12-24T04:34:52.471Z,6.10
2022-12-24T04:37:18.906Z,6.07
2022-12-24T04:39:45.262Z,5.97
2022-12-24T04:42:11.556Z,5.80
2022-12-24T04:44:37.909Z,6.45
2022-12-24T04:47:04.294Z,6.95
2022-12-24T04:49:30.815Z,4.85
2022-12-24T04:51:57.120Z,5.95
2022-12-24T04:54:23.556Z,5.68
2022-12-24T04:56:49.995Z,6.53
2022-12-24T04:59:16.619Z,5.38
2022-12-24T05:01:43.373Z,4.45
2022-12-24T05:04:11.134Z,4.53
2022-12-24T05:06:37.678Z,4.90
2022-12-24T05:09:04.085Z,4.72
2022-12-24T05:11:30.585Z,5.32
2022-12-24T05:13:56.944Z,6.00
2022-12-24T05:16:25.031Z,5.40
2022-12-24T05:18:52.379Z,5.28
2022-12-24T05:21:21.955Z,4.97
2022-12-24T05:24:07.692Z,5.60
2022-12-24T05:26:39.506Z,4.68
2022-12-24T05:29:07.009Z,5.57
2022-12-24T05:31:34.410Z,4.88
2022-12-24T05:34:01.851Z,7.00
2022-12-24T05:36:28.563Z,6.18
2022-12-24T05:38:54.963Z,4.40
2022-12-24T05:41:21.510Z,5.40
2022-12-24T05:43:47.909Z,4.90
2022-12-24T05:46:18.823Z,5.80
2022-12-24T05:48:46.236Z,5.47
2022-12-24T05:51:14.305Z,5.45
2022-12-24T05:53:41.486Z,5.32
2022-12-24T05:56:11.138Z,5.68
2022-12-24T05:58:38.367Z,5.10
2022-12-24T06:01:06.139Z,5.03
2022-12-24T06:03:33.249Z,5.53
2022-12-24T06:06:06.314Z,5.60
2022-12-24T06:08:33.561Z,5.57
2022-12-24T06:11:02.040Z,4.82
2022-12-24T06:13:29.135Z,4.82
2022-12-24T06:15:59.937Z,6.50
2022-12-24T06:18:26.836Z,4.13
2022-12-24T06:20:55.420Z,5.47
2022-12-24T06:25:49.124Z,4.75
2022-12-24T06:28:15.882Z,5.32
2022-12-24T06:30:46.487Z,5.50
2022-12-24T06:33:13.196Z,4.78
2022-12-24T06:35:39.715Z,5.50
2022-12-24T06:38:06.163Z,5.95
2022-12-24T06:40:32.726Z,5.68
2022-12-24T06:42:59.105Z,6.38
2022-12-24T06:45:25.665Z,5.40
2022-12-24T06:47:51.991Z,5.55
2022-12-24T06:50:18.681Z,6.38
2022-12-24T06:52:45.339Z,5.53
2022-12-24T06:55:11.904Z,6.40
2022-12-24T06:57:38.481Z,5.88
2022-12-24T07:00:06.162Z,6.28
2022-12-24T07:02:32.849Z,5.43
2022-12-24T07:04:59.404Z,5.95
2022-12-24T07:07:25.762Z,6.03
2022-12-24T07:09:52.342Z,5.97
2022-12-24T07:12:18.878Z,5.88
2022-12-24T07:14:45.462Z,5.68
2022-12-24T07:17:11.906Z,7.43
2022-12-24T07:19:38.538Z,7.82
2022-12-24T07:22:07.814Z,5.10
2022-12-24T07:24:38.216Z,6.18
2022-12-24T07:27:04.790Z,5.07
2022-12-24T07:29:31.324Z,5.50
2022-12-24T07:31:57.956Z,7.15
2022-12-24T07:34:24.496Z,6.13
2022-12-24T07:36:50.861Z,5.15
2022-12-24T07:39:17.260Z,5.03
2022-12-24T07:41:43.657Z,5.20
2022-12-24T07:44:14.173Z,6.22
2022-12-24T07:46:41.267Z,6.03
2022-12-24T07:49:07.903Z,6.15
2022-12-24T07:51:34.419Z,5.72
2022-12-24T07:54:00.856Z,6.40
2022-12-24T07:56:27.434Z,5.28
2022-12-24T07:58:53.933Z,4.80
2022-12-24T08:01:20.372Z,6.03
2022-12-24T08:03:47.378Z,5.97
2022-12-24T08:06:13.930Z,4.95
2022-12-24T08:08:40.614Z,4.72
2022-12-24T08:11:07.540Z,5.28
2022-12-24T08:13:34.184Z,5.30
2022-12-24T08:16:00.644Z,4.95
2022-12-24T08:18:27.221Z,5.93
2022-12-24T08:20:53.763Z,6.28
2022-12-24T08:23:20.212Z,5.70
2022-12-24T08:25:48.893Z,5.53
2022-12-24T08:28:17.449Z,5.38
2022-12-24T08:33:10.954Z,5.60
2022-12-24T08:35:37.407Z,6.65
2022-12-24T08:38:03.742Z,5.28
2022-12-24T08:40:30.060Z,6.20
2022-12-24T08:42:56.632Z,6.45
2022-12-24T08:45:23.478Z,6.45
2022-12-24T08:47:49.825Z,6.03
2022-12-24T08:50:16.226Z,6.57
2022-12-24T08:52:42.756Z,7.10
2022-12-24T08:55:09.460Z,7.38
2022-12-24T08:57:37.441Z,6.82
2022-12-24T09:00:06.221Z,6.45
2022-12-24T09:02:32.801Z,6.50
2022-12-24T09:04:59.270Z,5.68
2022-12-24T09:07:25.782Z,5.82
2022-12-24T09:09:52.369Z,6.03
2022-12-24T09:12:18.749Z,6.32
2022-12-24T09:14:45.129Z,5.68
2022-12-24T09:17:11.508Z,5.85
2022-12-24T09:19:39.159Z,5.78
2022-12-24T09:22:05.542Z,5.37
2022-12-24T09:24:32.461Z,5.70
2022-12-24T09:26:59.289Z,6.30
2022-12-24T09:29:25.682Z,6.22
2022-12-24T09:31:52.183Z,4.85
2022-12-24T09:34:18.719Z,8.05
2022-12-24T09:36:46.328Z,5.32
2022-12-24T09:39:13.381Z,5.97
2022-12-24T09:41:56.199Z,4.45
2022-12-24T09:45:24.436Z,6.30
2022-12-24T09:47:55.400Z,6.07
2022-12-24T09:50:32.447Z,4.88
2022-12-24T09:53:04.065Z,6.18
2022-12-24T09:55:34.216Z,5.72
2022-12-24T09:58:05.250Z,5.15
2022-12-24T10:00:35.864Z,6.43
2022-12-24T10:03:07.733Z,5.53
2022-12-24T10:06:06.188Z,6.25
2022-12-24T10:08:52.232Z,6.47
2022-12-24T10:11:49.700Z,6.00
2022-12-24T10:14:47.415Z,6.60
2022-12-24T10:17:35.091Z,5.88
2022-12-24T10:20:22.502Z,7.32
2022-12-24T10:23:16.268Z,6.53
2022-12-24T10:25:51.770Z,6.65
2022-12-24T10:28:22.393Z,6.82
2022-12-24T10:30:55.372Z,8.60
2022-12-24T10:33:38.389Z,6.68
2022-12-24T10:36:12.070Z,7.38
2022-12-24T10:38:39.017Z,6.50
2022-12-24T10:41:06.567Z,6.15
2022-12-24T10:43:33.319Z,6.45
2022-12-24T10:46:03.436Z,6.32
2022-12-24T10:48:42.309Z,7.43
2022-12-24T10:51:21.238Z,6.60
2022-12-24T10:54:06.595Z,6.53
2022-12-24T10:56:43.721Z,6.25
2022-12-24T10:59:28.846Z,6.05
2022-12-24T11:01:58.853Z,5.97
2022-12-24T11:04:29.615Z,5.80
2022-12-24T11:07:08.395Z,5.18
2022-12-24T11:09:41.487Z,6.60
2022-12-24T11:12:19.628Z,6.03
2022-12-24T11:14:46.119Z,6.28
2022-12-24T11:17:23.146Z,5.50
2022-12-24T11:19:51.871Z,5.80
2022-12-24T11:22:23.681Z,5.78
2022-12-24T11:25:22.242Z,5.90
2022-12-24T11:27:51.431Z,6.20
2022-12-24T11:30:23.439Z,6.53
2022-12-24T11:33:01.999Z,5.20
2022-12-24T11:38:05.054Z,6.80
2022-12-24T11:40:36.676Z,6.63
2022-12-24T11:43:10.954Z,6.40
2022-12-24T11:45:52.853Z,5.80
2022-12-24T11:51:01.332Z,5.73
2022-12-24T11:53:41.534Z,6.50
2022-12-24T11:56:27.449Z,6.45
2022-12-24T11:59:03.203Z,5.55
2022-12-24T12:01:52.958Z,5.65
2022-12-24T12:04:24.903Z,7.22
2022-12-24T12:07:01.708Z,6.00
2022-12-24T12:09:41.595Z,6.68
2022-12-24T12:12:12.258Z,6.85
2022-12-24T12:14:45.398Z,6.32
2022-12-24T12:17:33.778Z,6.85
2022-12-24T12:23:10.329Z,7.53
2022-12-24T12:25:59.328Z,6.75
2022-12-24T12:28:32.430Z,6.57
2022-12-24T12:31:15.561Z,6.22
2022-12-24T12:33:51.224Z,6.22
2022-12-24T12:36:23.162Z,6.32
2022-12-24T12:38:51.109Z,7.10
2022-12-24T12:41:28.214Z,6.53
2022-12-24T12:44:30.133Z,6.40
2022-12-24T12:47:07.372Z,5.93
2022-12-24T12:49:55.798Z,6.65
2022-12-24T12:55:33.444Z,5.65
2022-12-24T12:58:24.001Z,6.60
2022-12-24T13:00:57.669Z,7.40
2022-12-24T13:03:44.213Z,6.60
2022-12-24T13:06:39.725Z,6.63
2022-12-24T13:09:26.980Z,6.30
2022-12-24T13:12:03.425Z,7.05
2022-12-24T13:15:02.724Z,5.55
2022-12-24T13:17:43.597Z,7.15
2022-12-24T13:20:22.178Z,6.45
2022-12-24T13:22:56.288Z,6.53
2022-12-24T13:25:31.600Z,7.18
2022-12-24T13:28:24.205Z,6.80
2022-12-24T13:30:53.526Z,6.45
2022-12-24T13:33:43.240Z,7.28
2022-12-24T13:36:14.051Z,6.30
2022-12-24T13:38:48.528Z,6.88
2022-12-24T13:41:38.921Z,6.15
2022-12-24T13:44:13.470Z,7.00
2022-12-24T13:47:18.476Z,6.18
2022-12-24T13:49:48.460Z,6.25
2022-12-24T13:52:19.465Z,6.07
2022-12-24T13:54:49.009Z,7.22
2022-12-24T13:57:29.442Z,6.93
2022-12-24T14:00:03.776Z,5.80
2022-12-24T14:02:35.122Z,6.30
2022-12-24T14:05:08.743Z,5.25
2022-12-24T14:07:37.015Z,6.15
2022-12-24T14:10:06.323Z,4.80
2022-12-24T14:12:45.553Z,5.97
2022-12-24T14:16:00.739Z,5.25
2022-12-24T14:18:28.942Z,5.75
2022-12-24T14:20:59.013Z,4.93
2022-12-24T14:23:35.801Z,5.72
2022-12-24T14:26:04.022Z,6.15
2022-12-24T14:28:37.200Z,5.30
2022-12-24T14:31:06.685Z,5.35
2022-12-24T14:33:35.200Z,6.03
2022-12-24T14:36:03.193Z,5.68
2022-12-24T14:38:30.399Z,5.88
2022-12-24T14:41:09.186Z,6.85
2022-12-24T14:43:50.875Z,7.85
2022-12-24T14:46:36.463Z,6.75
2022-12-24T14:49:18.025Z,6.35
2022-12-24T14:51:57.497Z,5.85
2022-12-24T14:54:41.210Z,5.65
2022-12-24T14:57:10.544Z,5.82
2022-12-24T14:59:58.678Z,5.43
2022-12-24T15:02:34.327Z,5.82
2022-12-24T15:05:06.941Z,5.57
2022-12-24T15:07:35.362Z,6.07
2022-12-24T15:10:03.624Z,5.78
2022-12-24T15:12:31.723Z,5.82
2022-12-24T15:14:59.632Z,6.45
2022-12-24T15:17:27.418Z,5.35
2022-12-24T15:19:54.406Z,5.82
2022-12-24T15:22:28.005Z,6.10
2022-12-24T15:24:54.418Z,5.97
2022-12-24T15:27:25.148Z,6.10
2022-12-24T15:29:55.859Z,5.82
2022-12-24T15:32:23.177Z,6.65
2022-12-24T15:34:52.769Z,6.75
2022-12-24T15:37:36.026Z,6.15
2022-12-24T15:40:05.410Z,7.10
2022-12-24T15:42:32.138Z,6.60
2022-12-24T15:45:12.173Z,7.20
2022-12-24T15:47:45.025Z,7.65
2022-12-24T15:50:18.552Z,8.85
2022-12-24T15:52:45.991Z,8.43
2022-12-24T15:55:25.567Z,9.57
2022-12-24T15:57:52.612Z,12.02
2022-12-24T16:00:24.831Z,12.63
2022-12-24T16:02:51.821Z,13.60
2022-12-24T16:05:35.648Z,12.30
2022-12-24T16:08:09.506Z,9.52
2022-12-24T16:10:40.108Z,9.43
2022-12-24T16:13:24.074Z,8.68
2022-12-24T16:15:55.782Z,7.82
2022-12-24T16:18:28.195Z,7.68
2022-12-24T16:20:56.796Z,6.97
2022-12-24T16:25:55.431Z,6.50
2022-12-24T16:28:23.324Z,6.68
2022-12-24T16:30:50.262Z,6.53
2022-12-24T16:33:19.419Z,6.03
2022-12-24T16:35:47.027Z,6.43
2022-12-24T16:38:13.716Z,6.85
2022-12-24T16:40:41.646Z,5.03
2022-12-24T16:43:28.049Z,5.97
2022-12-24T16:45:59.751Z,6.05
2022-12-24T16:48:26.373Z,6.00
2022-12-24T16:50:53.898Z,7.40
2022-12-24T16:53:22.468Z,7.65
2022-12-24T16:55:51.105Z,7.20
2022-12-24T17:00:45.027Z,7.93
2022-12-24T17:03:12.579Z,6.82
2022-12-24T17:05:42.548Z,7.67
2022-12-24T17:08:09.557Z,7.65
2022-12-24T17:10:36.448Z,7.72
2022-12-24T17:13:03.353Z,7.75
2022-12-24T17:15:30.084Z,7.68
2022-12-24T17:17:56.492Z,8.35
2022-12-24T17:20:24.415Z,8.02
2022-12-24T17:22:51.269Z,8.27
2022-12-24T17:25:17.706Z,8.15
2022-12-24T17:27:44.145Z,8.07
2022-12-24T17:30:10.791Z,8.05
2022-12-24T17:32:37.456Z,9.35
2022-12-24T17:35:04.149Z,8.70
2022-12-24T17:37:30.739Z,9.02
2022-12-24T17:39:58.239Z,7.68
2022-12-24T17:42:24.791Z,8.45
2022-12-24T17:44:51.128Z,8.23
2022-12-24T17:47:17.667Z,9.27
2022-12-24T17:49:44.175Z,8.95
2022-12-24T17:52:11.402Z,10.63
2022-12-24T17:54:37.728Z,14.02
2022-12-24T17:57:04.028Z,13.07
2022-12-24T17:59:30.390Z,15.85
2022-12-24T18:01:56.859Z,12.65
2022-12-24T18:04:23.363Z,10.25
2022-12-24T18:06:50.078Z,10.10
2022-12-24T18:09:16.884Z,10.25
2022-12-24T18:11:43.339Z,10.13
2022-12-24T18:14:12.047Z,11.18
2022-12-24T18:16:40.127Z,10.15
2022-12-24T18:19:10.353Z,9.38
2022-12-24T18:21:37.211Z,11.82
2022-12-24T18:24:04.613Z,8.57
2022-12-24T18:26:33.344Z,9.93
2022-12-24T18:29:01.102Z,9.57
2022-12-24T18:31:29.887Z,9.17
2022-12-24T18:33:56.939Z,10.43
2022-12-24T18:36:24.423Z,10.23
2022-12-24T18:38:51.912Z,11.63
2022-12-24T18:41:29.674Z,10.02
2022-12-24T18:43:57.122Z,10.43
2022-12-24T18:46:29.589Z,11.05
2022-12-24T18:48:57.465Z,11.20
2022-12-24T18:51:26.539Z,11.10
2022-12-24T18:53:53.253Z,12.00
2022-12-24T18:56:22.873Z,12.75
2022-12-24T18:58:53.149Z,11.25
2022-12-24T19:01:25.537Z,12.18
2022-12-24T19:03:53.101Z,11.15
2022-12-24T19:06:20.693Z,11.88
2022-12-24T19:09:03.408Z,10.83
2022-12-24T19:11:32.181Z,13.27
2022-12-24T19:13:59.460Z,13.15
2022-12-24T19:16:26.736Z,11.68
2022-12-24T19:18:53.295Z,12.30
2022-12-24T19:21:19.716Z,12.27
2022-12-24T19:23:46.740Z,11.90
2022-12-24T19:26:14.863Z,11.13
2022-12-24T19:28:41.678Z,10.98
2022-12-24T19:31:12.205Z,12.18
2022-12-24T19:33:43.242Z,11.57
2022-12-24T19:36:12.450Z,12.70
2022-12-24T19:38:38.852Z,13.40
2022-12-24T19:41:12.350Z,11.68
2022-12-24T19:43:41.419Z,11.13
2022-12-24T19:46:14.356Z,14.75
2022-12-24T19:48:41.995Z,14.15
2022-12-24T19:51:11.108Z,14.93
2022-12-24T19:53:39.455Z,12.25
2022-12-24T19:56:07.041Z,14.93
2022-12-24T19:58:33.379Z,14.87
2022-12-24T20:01:15.727Z,12.48
2022-12-24T20:03:43.066Z,13.43
2022-12-24T20:06:09.681Z,13.25
2022-12-24T20:08:37.418Z,12.52
2022-12-24T20:11:06.789Z,11.43
2022-12-24T20:13:37.183Z,11.65
2022-12-24T20:16:12.757Z,12.57
2022-12-24T20:18:39.451Z,12.35
2022-12-24T20:21:08.833Z,12.57
2022-12-24T20:23:38.342Z,13.23
2022-12-24T20:26:06.487Z,12.45
2022-12-24T20:28:35.485Z,12.15
2022-12-24T20:31:08.397Z,12.27
2022-12-24T20:33:35.089Z,11.07
2022-12-24T20:36:02.490Z,11.70
2022-12-24T20:38:28.886Z,12.13
2022-12-24T20:40:57.286Z,11.48
2022-12-24T20:43:24.615Z,11.95
2022-12-24T20:45:52.673Z,11.13
2022-12-24T20:48:20.924Z,10.82
2022-12-24T20:50:47.347Z,9.75
2022-12-24T20:53:13.829Z,10.00
2022-12-24T20:55:40.470Z,11.35
2022-12-24T20:58:06.886Z,12.20
2022-12-24T21:00:33.584Z,13.77
2022-12-24T21:03:00.098Z,15.50
2022-12-24T21:05:26.654Z,14.25
2022-12-24T21:07:53.018Z,10.70
2022-12-24T21:10:19.396Z,10.90
2022-12-24T21:12:48.685Z,10.25
2022-12-24T21:15:20.793Z,11.18
2022-12-24T21:17:47.351Z,10.25
2022-12-24T21:20:15.011Z,9.88
2022-12-24T21:22:41.727Z,10.30
2022-12-24T21:25:10.223Z,10.57
2022-12-24T21:27:37.715Z,10.43
2022-12-24T21:30:05.791Z,9.32
2022-12-24T21:32:32.170Z,10.80
2022-12-24T21:34:58.516Z,17.38
2022-12-24T21:37:24.828Z,18.17
2022-12-24T21:39:51.237Z,15.50
2022-12-24T21:42:17.567Z,13.65
2022-12-24T21:44:44.393Z,11.63
2022-12-24T21:47:11.115Z,10.85
2022-12-24T21:49:56.289Z,10.43
2022-12-24T21:52:22.938Z,10.52
2022-12-24T21:54:50.011Z,8.50
2022-12-24T21:57:35.054Z,9.65
2022-12-24T22:00:21.422Z,8.50
2022-12-24T22:02:55.719Z,8.63
2022-12-24T22:05:24.440Z,8.43
2022-12-24T22:10:56.034Z,9.40
2022-12-24T22:13:22.943Z,9.10
2022-12-24T22:15:51.973Z,8.45
2022-12-24T22:18:20.875Z,9.23
2022-12-24T22:20:48.026Z,9.02
2022-12-24T22:23:15.285Z,8.52
2022-12-24T22:25:43.661Z,8.95
2022-12-24T22:28:11.299Z,8.60
2022-12-24T22:30:42.264Z,8.43
2022-12-24T22:33:09.477Z,7.95
2022-12-24T22:35:40.251Z,8.75
2022-12-24T22:38:08.810Z,8.95
2022-12-24T22:43:01.695Z,9.75
2022-12-24T22:45:28.059Z,9.52
2022-12-24T22:47:54.468Z,7.95
2022-12-24T22:50:20.945Z,8.52
2022-12-24T22:52:47.278Z,9.02
2022-12-24T22:55:13.621Z,9.82
2022-12-24T22:57:39.968Z,9.00
2022-12-24T23:00:13.325Z,8.68
2022-12-24T23:02:39.856Z,8.65
2022-12-24T23:05:06.719Z,8.13
2022-12-24T23:07:33.042Z,8.38
2022-12-24T23:09:59.914Z,8.35
2022-12-24T23:12:44.782Z,8.02
2022-12-24T23:15:11.489Z,8.85
2022-12-24T23:17:37.920Z,7.53
2022-12-24T23:20:04.776Z,7.65
2022-12-24T23:22:31.127Z,8.48
2022-12-24T23:24:57.604Z,8.05
2022-12-24T23:27:24.363Z,9.20
2022-12-24T23:29:50.742Z,8.00
2022-12-24T23:32:17.256Z,8.10
2022-12-24T23:34:43.717Z,9.95
2022-12-24T23:37:10.134Z,9.02
2022-12-24T23:39:36.715Z,8.32
2022-12-24T23:42:03.181Z,10.32
2022-12-24T23:44:32.426Z,9.82
2022-12-24T23:46:59.706Z,8.75
2022-12-24T23:49:26.639Z,6.40
2022-12-24T23:51:53.217Z,6.63
2022-12-24T23:54:19.601Z,7.72
2022-12-24T23:56:46.234Z,7.28
2022-12-24T23:59:12.556Z,6.78
